createdAt,value
2022-11-30T00:01:24.683Z,54.30
2022-11-30T00:03:56.612Z,50.00
2022-11-30T00:06:25.535Z,49.13
2022-11-30T00:08:54.066Z,54.90
2022-11-30T00:11:23.447Z,54.47
2022-11-30T00:13:51.404Z,63.20
2022-11-30T00:16:19.323Z,60.13
2022-11-30T00:18:47.188Z,61.87
2022-11-30T00:21:16.743Z,57.33
2022-11-30T00:23:46.337Z,51.27
2022-11-30T00:26:16.562Z,54.07
2022-11-30T00:28:45.720Z,48.33
2022-11-30T00:31:15.244Z,52.83
2022-11-30T00:33:43.241Z,54.07
2022-11-30T00:36:13.930Z,56.07
2022-11-30T00:38:43.451Z,48.77
2022-11-30T00:41:11.523Z,52.10
2022-11-30T00:43:39.693Z,57.60
2022-11-30T00:46:09.246Z,56.67
2022-11-30T00:48:37.152Z,61.23
2022-11-30T00:51:05.353Z,57.40
2022-11-30T00:53:33.170Z,63.17
2022-11-30T00:56:02.382Z,55.77
2022-11-30T00:58:30.127Z,57.40
2022-11-30T01:00:57.922Z,61.80
2022-11-30T01:03:25.894Z,55.10
2022-11-30T01:05:53.652Z,62.80
2022-11-30T01:08:21.399Z,62.57
2022-11-30T01:10:53.290Z,61.07
2022-11-30T01:13:22.398Z,61.73
2022-11-30T01:15:50.212Z,55.70
2022-11-30T01:18:18.014Z,63.07
2022-11-30T01:20:45.752Z,60.77
2022-11-30T01:23:14.379Z,54.03
2022-11-30T01:25:42.185Z,61.87
2022-11-30T01:28:11.224Z,60.57
2022-11-30T01:30:40.338Z,66.87
2022-11-30T01:33:08.201Z,66.30
2022-11-30T01:35:35.949Z,66.40
2022-11-30T01:38:03.653Z,64.77
2022-11-30T01:40:31.512Z,64.80
2022-11-30T01:42:59.277Z,59.93
2022-11-30T01:45:27.074Z,58.50
2022-11-30T01:47:58.435Z,60.67
2022-11-30T01:50:31.478Z,61.93
2022-11-30T01:52:59.885Z,63.93
2022-11-30T01:55:33.486Z,62.20
2022-11-30T01:58:04.948Z,56.63
2022-11-30T02:00:32.796Z,58.97
2022-11-30T02:03:06.955Z,53.50
2022-11-30T02:05:35.693Z,52.83
2022-11-30T02:08:03.745Z,55.50
2022-11-30T02:10:33.709Z,56.07
2022-11-30T02:13:22.157Z,56.73
2022-11-30T02:15:59.816Z,62.60
2022-11-30T02:18:34.236Z,63.00
2022-11-30T02:21:10.704Z,64.93
2022-11-30T02:24:05.051Z,60.60
2022-11-30T02:27:04.561Z,58.73
2022-11-30T02:29:35.838Z,57.97
2022-11-30T02:32:09.396Z,53.70
2022-11-30T02:34:38.940Z,61.63
2022-11-30T02:37:09.232Z,61.57
2022-11-30T02:39:36.942Z,54.43
2022-11-30T02:42:04.847Z,58.47
2022-11-30T02:44:34.449Z,60.97
2022-11-30T02:47:13.433Z,54.67
2022-11-30T02:49:49.358Z,54.70
2022-11-30T02:52:19.776Z,53.90
2022-11-30T02:54:47.934Z,51.77
2022-11-30T02:57:15.854Z,57.37
2022-11-30T02:59:45.097Z,55.17
2022-11-30T03:02:12.927Z,55.47
2022-11-30T03:04:40.718Z,54.77
2022-11-30T03:07:08.450Z,55.67
2022-11-30T03:09:36.210Z,52.77
2022-11-30T03:12:04.110Z,54.63
2022-11-30T03:14:31.829Z,55.47
2022-11-30T03:17:01.009Z,64.13
2022-11-30T03:19:28.917Z,57.10
2022-11-30T03:21:56.642Z,56.77
2022-11-30T03:24:24.500Z,62.60
2022-11-30T03:26:53.009Z,65.07
2022-11-30T03:29:20.826Z,64.03
2022-11-30T03:31:48.610Z,66.57
2022-11-30T03:34:17.684Z,71.93
2022-11-30T03:36:45.636Z,63.60
2022-11-30T03:39:13.387Z,67.87
2022-11-30T03:41:41.120Z,75.73
2022-11-30T03:44:08.818Z,69.07
2022-11-30T03:46:36.660Z,71.57
2022-11-30T03:49:04.634Z,73.13
2022-11-30T03:51:33.742Z,74.73
2022-11-30T03:54:01.581Z,69.70
2022-11-30T03:56:30.370Z,77.83
2022-11-30T03:58:58.330Z,81.77
2022-11-30T04:01:26.638Z,76.20
2022-11-30T04:03:54.605Z,74.47
2022-11-30T04:06:22.857Z,75.87
2022-11-30T04:08:52.225Z,66.93
2022-11-30T04:11:20.041Z,74.70
2022-11-30T04:13:47.756Z,75.37
2022-11-30T04:16:15.583Z,87.20
2022-11-30T04:18:43.581Z,77.40
2022-11-30T04:21:12.007Z,75.67
2022-11-30T04:23:41.014Z,74.40
2022-11-30T04:26:13.763Z,74.87
2022-11-30T04:28:42.110Z,72.43
2022-11-30T04:31:10.450Z,75.83
2022-11-30T04:33:38.568Z,73.87
2022-11-30T04:36:08.091Z,68.63
2022-11-30T04:38:37.499Z,70.63
2022-11-30T04:41:08.859Z,71.93
2022-11-30T04:43:38.178Z,63.27
2022-11-30T04:46:06.355Z,64.97
2022-11-30T04:48:34.586Z,58.93
2022-11-30T04:51:03.421Z,55.33
2022-11-30T04:53:31.183Z,58.37
2022-11-30T04:55:59.040Z,56.80
2022-11-30T04:58:26.761Z,54.87
2022-11-30T05:00:56.308Z,55.97
2022-11-30T05:03:24.130Z,51.40
2022-11-30T05:05:51.866Z,52.70
2022-11-30T05:08:20.312Z,52.90
2022-11-30T05:10:53.240Z,51.30
2022-11-30T05:13:21.418Z,52.60
2022-11-30T05:15:49.291Z,54.73
2022-11-30T05:18:18.716Z,58.73
2022-11-30T05:20:49.187Z,60.73
2022-11-30T05:23:17.234Z,66.73
2022-11-30T05:25:45.819Z,64.50
2022-11-30T05:28:14.136Z,66.90
2022-11-30T05:30:43.506Z,67.37
2022-11-30T05:33:11.700Z,64.50
2022-11-30T05:35:41.161Z,66.43
2022-11-30T05:38:08.935Z,66.13
2022-11-30T05:40:37.068Z,68.20
2022-11-30T05:43:05.808Z,69.97
2022-11-30T05:45:33.635Z,71.60
2022-11-30T05:48:01.466Z,67.00
2022-11-30T05:50:29.280Z,67.77
2022-11-30T05:53:00.760Z,65.43
2022-11-30T05:55:31.053Z,56.50
2022-11-30T05:58:00.714Z,57.77
2022-11-30T06:00:28.580Z,60.63
2022-11-30T06:02:58.322Z,51.73
2022-11-30T06:05:26.809Z,58.67
2022-11-30T06:07:55.020Z,55.03
2022-11-30T06:10:25.339Z,52.00
2022-11-30T06:12:53.707Z,49.63
2022-11-30T06:15:21.508Z,48.97
2022-11-30T06:17:49.263Z,45.33
2022-11-30T06:20:17.235Z,43.20
2022-11-30T06:22:47.588Z,48.33
2022-11-30T06:25:15.766Z,41.70
2022-11-30T06:27:44.931Z,43.03
2022-11-30T06:30:14.081Z,41.20
2022-11-30T06:32:45.693Z,40.33
2022-11-30T06:35:13.492Z,38.20
2022-11-30T06:37:41.604Z,36.33
2022-11-30T06:40:11.155Z,36.03
2022-11-30T06:42:39.822Z,38.27
2022-11-30T06:45:09.945Z,38.63
2022-11-30T06:47:37.776Z,32.50
2022-11-30T06:50:08.172Z,35.27
2022-11-30T06:52:35.894Z,32.30
2022-11-30T06:55:04.118Z,34.37
2022-11-30T06:57:32.213Z,32.23
2022-11-30T07:00:00.073Z,31.20
2022-11-30T07:02:29.111Z,30.97
2022-11-30T07:04:56.919Z,33.03
2022-11-30T07:07:24.753Z,31.93
2022-11-30T07:09:52.573Z,30.53
2022-11-30T07:12:20.471Z,31.17
2022-11-30T07:14:48.321Z,32.57
2022-11-30T07:17:16.220Z,34.50
2022-11-30T07:19:46.081Z,31.33
2022-11-30T07:22:13.817Z,31.93
2022-11-30T07:25:01.120Z,32.40
2022-11-30T07:27:28.880Z,32.30
2022-11-30T07:29:56.584Z,31.03
2022-11-30T07:32:24.310Z,32.57
2022-11-30T07:34:53.376Z,33.73
2022-11-30T07:37:21.217Z,29.63
2022-11-30T07:39:48.940Z,30.30
2022-11-30T07:42:17.694Z,27.80
2022-11-30T07:44:45.760Z,30.67
2022-11-30T07:47:13.779Z,33.83
2022-11-30T07:49:41.569Z,33.07
2022-11-30T07:52:10.678Z,32.20
2022-11-30T07:54:38.401Z,32.23
2022-11-30T07:57:06.424Z,34.43
2022-11-30T07:59:34.208Z,32.50
2022-11-30T08:02:02.142Z,29.03
2022-11-30T08:04:30.104Z,30.33
2022-11-30T08:06:57.953Z,31.53
2022-11-30T08:09:27.073Z,31.23
2022-11-30T08:11:54.833Z,30.23
2022-11-30T08:14:22.588Z,34.50
2022-11-30T08:16:51.773Z,33.13
2022-11-30T08:19:19.812Z,31.30
2022-11-30T08:21:47.843Z,31.80
2022-11-30T08:24:15.920Z,34.27
2022-11-30T08:26:45.364Z,29.83
2022-11-30T08:29:13.160Z,31.83
2022-11-30T08:31:41.070Z,28.67
2022-11-30T08:34:11.262Z,29.57
2022-11-30T08:36:39.687Z,31.40
2022-11-30T08:39:09.482Z,30.00
2022-11-30T08:41:39.022Z,29.47
2022-11-30T08:44:08.322Z,32.97
2022-11-30T08:46:53.220Z,30.10
2022-11-30T08:49:23.502Z,30.60
2022-11-30T08:57:32.600Z,28.13
2022-11-30T09:00:01.790Z,29.10
2022-11-30T09:02:29.539Z,31.77
2022-11-30T09:04:57.578Z,29.07
2022-11-30T09:07:25.292Z,28.37
2022-11-30T09:09:53.034Z,30.00
2022-11-30T09:12:20.758Z,30.20
2022-11-30T09:14:55.574Z,27.80
2022-11-30T09:17:26.834Z,28.07
2022-11-30T09:19:55.108Z,29.13
2022-11-30T09:22:22.880Z,29.40
2022-11-30T09:24:50.920Z,32.03
2022-11-30T09:27:18.854Z,29.37
2022-11-30T09:29:46.957Z,29.87
2022-11-30T09:32:14.670Z,32.30
2022-11-30T09:34:44.316Z,28.70
2022-11-30T09:37:12.178Z,28.73
2022-11-30T09:39:39.952Z,32.50
2022-11-30T09:42:32.310Z,31.93
2022-11-30T09:45:04.572Z,34.93
2022-11-30T09:47:43.846Z,32.23
2022-11-30T09:50:16.275Z,32.70
2022-11-30T09:52:47.904Z,38.20
2022-11-30T09:55:23.410Z,33.87
2022-11-30T09:57:55.154Z,37.17
2022-11-30T10:00:25.039Z,38.93
2022-11-30T10:02:54.864Z,42.57
2022-11-30T10:05:29.032Z,42.00
2022-11-30T10:08:20.453Z,38.87
2022-11-30T10:10:57.149Z,45.73
2022-11-30T10:13:40.249Z,41.63
2022-11-30T10:16:17.590Z,41.37
2022-11-30T10:18:55.945Z,38.57
2022-11-30T10:21:41.223Z,40.33
2022-11-30T10:24:20.662Z,40.47
2022-11-30T10:26:55.069Z,40.40
2022-11-30T10:29:31.235Z,42.73
2022-11-30T10:32:01.307Z,46.23
2022-11-30T10:34:34.640Z,44.33
2022-11-30T10:37:09.193Z,43.53
2022-11-30T10:39:40.271Z,44.27
2022-11-30T10:42:13.130Z,48.50
2022-11-30T10:44:46.475Z,52.33
2022-11-30T10:47:20.295Z,55.77
2022-11-30T10:49:52.696Z,55.13
2022-11-30T10:52:27.178Z,55.40
2022-11-30T10:55:02.262Z,54.40
2022-11-30T10:57:33.361Z,56.33
2022-11-30T11:00:05.166Z,58.27
2022-11-30T11:02:42.749Z,55.00
2022-11-30T11:05:17.920Z,52.63
2022-11-30T11:07:51.420Z,55.43
2022-11-30T11:10:21.567Z,59.93
2022-11-30T11:12:51.693Z,59.50
2022-11-30T11:15:23.068Z,58.47
2022-11-30T11:17:52.008Z,54.40
2022-11-30T11:20:35.015Z,58.87
2022-11-30T11:23:05.056Z,55.73
2022-11-30T11:25:35.386Z,60.63
2022-11-30T11:28:08.895Z,59.37
2022-11-30T11:30:37.921Z,58.53
2022-11-30T11:33:20.859Z,54.33
2022-11-30T11:35:50.576Z,56.30
2022-11-30T11:38:25.489Z,59.10
2022-11-30T11:41:02.110Z,56.70
2022-11-30T11:43:32.977Z,56.93
2022-11-30T11:46:04.099Z,55.17
2022-11-30T11:48:36.038Z,52.70
2022-11-30T11:51:08.265Z,57.13
2022-11-30T11:53:52.761Z,58.93
2022-11-30T11:56:26.341Z,52.87
2022-11-30T11:58:59.421Z,52.43
2022-11-30T12:01:41.521Z,58.87
2022-11-30T12:04:23.334Z,54.40
2022-11-30T12:06:55.931Z,57.40
2022-11-30T12:09:30.967Z,55.20
2022-11-30T12:11:58.687Z,53.90
2022-11-30T12:14:26.978Z,56.43
2022-11-30T12:17:10.764Z,53.33
2022-11-30T12:19:46.983Z,52.27
2022-11-30T12:22:28.901Z,51.23
2022-11-30T12:25:12.924Z,50.57
2022-11-30T12:27:54.089Z,56.77
2022-11-30T12:30:26.053Z,53.03
2022-11-30T12:33:13.689Z,54.23
2022-11-30T12:35:52.389Z,51.83
2022-11-30T12:38:30.320Z,53.37
2022-11-30T12:41:06.723Z,49.20
2022-11-30T12:43:44.892Z,44.70
2022-11-30T12:46:21.943Z,49.50
2022-11-30T12:49:03.352Z,46.30
2022-11-30T12:51:36.883Z,42.27
2022-11-30T12:54:13.903Z,45.83
2022-11-30T12:56:47.102Z,43.83
2022-11-30T12:59:23.842Z,45.77
2022-11-30T13:02:17.049Z,43.03
2022-11-30T13:04:50.806Z,42.93
2022-11-30T13:07:26.737Z,42.93
2022-11-30T13:09:58.586Z,45.57
2022-11-30T13:12:36.142Z,43.73
2022-11-30T13:15:09.776Z,43.87
2022-11-30T13:17:41.900Z,39.47
2022-11-30T13:20:22.195Z,42.13
2022-11-30T13:22:56.310Z,42.83
2022-11-30T13:26:06.452Z,40.63
2022-11-30T13:28:32.410Z,41.77
2022-11-30T13:31:08.321Z,42.83
2022-11-30T13:34:00.802Z,37.67
2022-11-30T13:36:34.572Z,40.30
2022-11-30T13:39:30.211Z,42.23
2022-11-30T13:42:37.486Z,40.90
2022-11-30T13:45:26.035Z,40.30
2022-11-30T13:47:55.608Z,40.57
2022-11-30T13:50:35.724Z,41.63
2022-11-30T13:53:34.300Z,36.97
2022-11-30T13:56:05.410Z,42.00
2022-11-30T13:58:33.507Z,44.13
2022-11-30T14:01:24.312Z,43.50
2022-11-30T14:04:23.732Z,43.83
2022-11-30T14:06:53.030Z,42.93
2022-11-30T14:10:08.795Z,42.47
2022-11-30T14:12:48.153Z,39.57
2022-11-30T14:15:53.443Z,41.00
2022-11-30T14:18:44.303Z,38.87
2022-11-30T14:21:17.783Z,41.67
2022-11-30T14:23:51.984Z,40.20
2022-11-30T14:26:27.018Z,41.83
2022-11-30T14:29:04.117Z,48.03
2022-11-30T14:31:37.845Z,42.37
2022-11-30T14:34:12.900Z,46.83
2022-11-30T14:36:44.875Z,43.93
2022-11-30T14:39:32.795Z,46.07
2022-11-30T14:42:00.882Z,43.17
2022-11-30T14:44:29.165Z,41.07
2022-11-30T14:46:57.288Z,41.53
2022-11-30T14:49:26.742Z,43.27
2022-11-30T14:52:03.420Z,45.93
2022-11-30T14:54:51.058Z,45.73
2022-11-30T14:57:25.503Z,48.63
2022-11-30T14:59:55.726Z,45.10
2022-11-30T15:02:31.453Z,43.07
2022-11-30T15:05:01.674Z,45.50
2022-11-30T15:07:30.633Z,46.93
2022-11-30T15:10:05.357Z,45.30
2022-11-30T15:12:34.409Z,49.17
2022-11-30T15:15:07.996Z,47.60
2022-11-30T15:17:53.509Z,47.13
2022-11-30T15:20:30.369Z,44.00
2022-11-30T15:22:59.386Z,48.83
2022-11-30T15:25:36.081Z,46.50
2022-11-30T15:28:05.085Z,47.10
2022-11-30T15:30:35.941Z,46.93
2022-11-30T15:33:04.173Z,47.50
2022-11-30T15:35:50.352Z,45.00
2022-11-30T15:38:23.513Z,48.90
2022-11-30T15:40:54.558Z,50.70
2022-11-30T15:43:26.846Z,50.40
2022-11-30T15:45:56.339Z,49.90
2022-11-30T15:48:30.253Z,51.10
2022-11-30T15:51:00.208Z,49.80
2022-11-30T15:53:33.720Z,47.17
2022-11-30T15:56:07.459Z,48.73
2022-11-30T15:58:39.897Z,52.13
2022-11-30T16:01:11.054Z,49.03
2022-11-30T16:04:01.036Z,47.50
2022-11-30T16:06:31.986Z,44.30
2022-11-30T16:09:07.712Z,47.40
2022-11-30T16:11:36.691Z,50.53
2022-11-30T16:14:05.673Z,50.97
2022-11-30T16:16:36.916Z,46.63
2022-11-30T16:19:07.689Z,47.07
2022-11-30T16:21:37.157Z,47.07
2022-11-30T16:24:08.018Z,44.47
2022-11-30T16:26:50.683Z,44.57
2022-11-30T16:29:19.290Z,41.60
2022-11-30T16:31:47.258Z,40.87
2022-11-30T16:34:15.278Z,41.07
2022-11-30T16:36:46.996Z,42.70
2022-11-30T16:39:14.692Z,37.27
2022-11-30T16:41:43.445Z,37.60
2022-11-30T16:44:14.399Z,35.60
2022-11-30T16:46:42.261Z,33.97
2022-11-30T16:49:10.079Z,34.23
2022-11-30T16:51:37.866Z,34.37
2022-11-30T16:54:07.143Z,36.37
2022-11-30T16:56:34.798Z,31.53
2022-11-30T16:59:05.517Z,31.20
2022-11-30T17:01:36.787Z,33.03
2022-11-30T17:04:11.243Z,31.97
2022-11-30T17:06:39.025Z,32.70
2022-11-30T17:09:12.764Z,31.00
2022-11-30T17:11:41.908Z,31.87
2022-11-30T17:14:12.149Z,29.87
2022-11-30T17:16:39.939Z,30.43
2022-11-30T17:19:11.153Z,33.23
2022-11-30T17:21:44.598Z,31.37
2022-11-30T17:24:14.472Z,27.87
2022-11-30T17:26:42.214Z,28.80
2022-11-30T17:29:26.294Z,29.70
2022-11-30T17:31:54.105Z,29.17
2022-11-30T17:34:21.997Z,28.40
2022-11-30T17:36:51.098Z,29.27
2022-11-30T17:39:20.360Z,29.10
2022-11-30T17:41:48.154Z,28.90
2022-11-30T17:44:16.010Z,28.70
2022-11-30T17:46:48.047Z,27.73
2022-11-30T17:49:16.202Z,27.13
2022-11-30T17:51:44.046Z,28.33
2022-11-30T17:54:12.301Z,28.83
2022-11-30T17:56:43.387Z,27.90
2022-11-30T17:59:11.220Z,26.57
2022-11-30T18:01:40.375Z,27.50
2022-11-30T18:04:08.720Z,28.23
2022-11-30T18:06:36.510Z,27.47
2022-11-30T18:09:04.553Z,29.43
2022-11-30T18:11:32.713Z,28.07
2022-11-30T18:14:03.512Z,27.63
2022-11-30T18:16:35.296Z,24.83
2022-11-30T18:19:03.254Z,27.20
2022-11-30T18:21:31.213Z,28.63
2022-11-30T18:23:59.682Z,25.77
2022-11-30T18:26:27.947Z,26.13
2022-11-30T18:28:57.334Z,24.13
2022-11-30T18:31:27.869Z,25.43
2022-11-30T18:33:56.826Z,23.27
2022-11-30T18:36:24.910Z,25.30
2022-11-30T18:38:52.901Z,23.70
2022-11-30T18:41:21.272Z,22.47
2022-11-30T18:43:49.042Z,20.40
2022-11-30T18:46:16.929Z,23.13
2022-11-30T18:48:50.028Z,22.90
2022-11-30T18:51:19.803Z,27.33
2022-11-30T18:53:48.014Z,23.03
2022-11-30T18:56:17.682Z,22.37
2022-11-30T18:58:46.333Z,22.30
2022-11-30T19:01:16.247Z,19.83
2022-11-30T19:03:44.141Z,21.73
2022-11-30T19:06:13.328Z,25.67
2022-11-30T19:08:41.602Z,25.00
2022-11-30T19:11:10.687Z,25.50
2022-11-30T19:13:38.476Z,22.93
2022-11-30T19:16:11.253Z,23.33
2022-11-30T19:18:39.608Z,22.90
2022-11-30T19:21:09.522Z,25.33
2022-11-30T19:23:39.646Z,23.83
2022-11-30T19:26:10.012Z,25.87
2022-11-30T19:28:39.843Z,22.93
2022-11-30T19:31:09.536Z,27.17
2022-11-30T19:33:38.093Z,24.63
2022-11-30T19:36:08.262Z,22.87
2022-11-30T19:38:36.041Z,22.53
2022-11-30T19:41:07.773Z,22.40
2022-11-30T19:43:35.925Z,25.30
2022-11-30T19:46:08.089Z,25.13
2022-11-30T19:48:36.229Z,24.63
2022-11-30T19:51:10.921Z,24.53
2022-11-30T19:53:42.861Z,19.83
2022-11-30T19:56:14.929Z,19.97
2022-11-30T19:58:43.859Z,22.40
2022-11-30T20:01:13.490Z,18.80
2022-11-30T20:03:41.361Z,19.53
2022-11-30T20:06:09.124Z,19.40
2022-11-30T20:08:38.661Z,20.13
2022-11-30T20:11:07.377Z,21.40
2022-11-30T20:13:36.891Z,18.27
2022-11-30T20:16:08.955Z,20.27
2022-11-30T20:18:40.092Z,21.93
2022-11-30T20:21:12.455Z,18.60
2022-11-30T20:23:40.859Z,18.37
2022-11-30T20:26:17.381Z,19.47
2022-11-30T20:28:47.159Z,18.30
2022-11-30T20:31:16.346Z,16.77
2022-11-30T20:33:44.223Z,18.60
2022-11-30T20:36:13.338Z,19.37
2022-11-30T20:38:46.563Z,15.47
2022-11-30T20:41:15.873Z,17.37
2022-11-30T20:43:44.122Z,16.33
2022-11-30T20:46:18.247Z,18.10
2022-11-30T20:48:49.196Z,17.93
2022-11-30T20:51:30.789Z,17.33
2022-11-30T20:54:00.758Z,16.63
2022-11-30T20:56:28.554Z,17.30
2022-11-30T20:58:56.595Z,15.63
2022-11-30T21:01:25.758Z,17.40
2022-11-30T21:03:53.790Z,17.73
2022-11-30T21:06:21.543Z,18.30
2022-11-30T21:08:49.285Z,16.83
2022-11-30T21:11:22.086Z,16.73
2022-11-30T21:13:51.472Z,16.53
2022-11-30T21:16:27.289Z,16.67
2022-11-30T21:18:58.711Z,17.53
2022-11-30T21:21:28.152Z,17.17
2022-11-30T21:23:55.979Z,19.87
2022-11-30T21:26:25.711Z,18.60
2022-11-30T21:28:56.404Z,19.23
2022-11-30T21:31:27.091Z,20.83
2022-11-30T21:33:55.964Z,18.10
2022-11-30T21:36:27.604Z,19.43
2022-11-30T21:39:04.141Z,17.77
2022-11-30T21:41:33.293Z,18.37
2022-11-30T21:44:01.118Z,18.27
2022-11-30T21:46:28.881Z,20.00
2022-11-30T21:49:11.945Z,18.50
2022-11-30T21:51:42.712Z,18.57
2022-11-30T21:54:17.357Z,16.87
2022-11-30T21:56:47.819Z,17.27
2022-11-30T21:59:19.223Z,17.30
2022-11-30T22:01:47.734Z,18.57
2022-11-30T22:04:17.502Z,17.77
2022-11-30T22:06:46.702Z,16.80
2022-11-30T22:09:16.278Z,19.00
2022-11-30T22:11:45.552Z,20.33
2022-11-30T22:14:15.764Z,23.10
2022-11-30T22:16:43.941Z,16.13
2022-11-30T22:19:11.826Z,17.23
2022-11-30T22:21:39.615Z,18.10
2022-11-30T22:24:11.529Z,19.93
2022-11-30T22:26:40.591Z,19.53
2022-11-30T22:29:12.360Z,19.37
2022-11-30T22:31:44.776Z,18.13
2022-11-30T22:34:13.086Z,15.93
2022-11-30T22:36:45.873Z,18.80
2022-11-30T22:39:17.397Z,15.43
2022-11-30T22:41:48.660Z,15.50
2022-11-30T22:44:20.954Z,16.60
2022-11-30T22:46:51.202Z,19.53
2022-11-30T22:49:21.529Z,16.07
2022-11-30T22:51:52.704Z,16.90
2022-11-30T22:54:21.803Z,15.43
2022-11-30T22:56:49.528Z,17.23
2022-11-30T22:59:19.621Z,17.00
2022-11-30T23:01:49.731Z,15.60
2022-11-30T23:04:19.300Z,16.10
2022-11-30T23:06:49.279Z,18.07
2022-11-30T23:09:22.030Z,16.43
2022-11-30T23:11:50.135Z,15.40
2022-11-30T23:14:18.329Z,16.30
2022-11-30T23:16:46.618Z,14.80
2022-11-30T23:19:15.568Z,12.57
2022-11-30T23:21:45.359Z,12.83
2022-11-30T23:24:15.825Z,15.63
2022-11-30T23:26:44.889Z,14.13
2022-11-30T23:29:15.460Z,13.83
2022-11-30T23:31:44.660Z,15.37
2022-11-30T23:34:14.932Z,13.67
2022-11-30T23:36:42.758Z,15.53
2022-11-30T23:39:12.588Z,16.00
2022-11-30T23:41:41.030Z,14.23
2022-11-30T23:44:11.134Z,16.23
2022-11-30T23:46:38.978Z,14.60
2022-11-30T23:49:06.852Z,12.73
2022-11-30T23:51:34.669Z,15.17
2022-11-30T23:54:02.463Z,13.23
2022-11-30T23:56:30.228Z,13.87
2022-11-30T23:58:58.107Z,14.53
